createdAt,value
2019-05-20T00:01:54.278Z,79.00
2019-05-20T00:04:22.866Z,79.40
2019-05-20T00:06:51.517Z,79.40
2019-05-20T00:09:20.177Z,79.40
2019-05-20T00:11:48.733Z,79.80
2019-05-20T00:14:17.338Z,80.20
2019-05-20T00:16:45.880Z,80.30
2019-05-20T00:19:14.480Z,80.70
2019-05-20T00:21:43.098Z,80.50
2019-05-20T00:24:11.713Z,80.60
2019-05-20T00:26:40.290Z,80.60
2019-05-20T00:29:08.904Z,80.60
2019-05-20T00:31:37.706Z,80.70
2019-05-20T00:34:06.282Z,80.60
2019-05-20T00:36:34.871Z,80.50
2019-05-20T00:39:21.563Z,80.50
2019-05-20T00:41:50.310Z,80.50
2019-05-20T00:44:19.128Z,80.20
2019-05-20T00:46:47.705Z,80.10
2019-05-20T00:49:16.283Z,80.20
2019-05-20T00:51:45.469Z,80.10
2019-05-20T00:54:14.264Z,80.40
2019-05-20T00:56:42.940Z,80.50
2019-05-20T00:59:11.547Z,80.50
2019-05-20T01:01:40.170Z,80.40
2019-05-20T01:04:08.739Z,80.50
2019-05-20T01:06:37.331Z,80.60
2019-05-20T01:09:07.835Z,80.80
2019-05-20T01:11:36.433Z,81.20
2019-05-20T01:14:05.420Z,81.30
2019-05-20T01:16:34.035Z,81.60
2019-05-20T01:19:02.551Z,81.70
2019-05-20T01:21:31.135Z,81.60
2019-05-20T01:23:59.718Z,81.30
2019-05-20T01:26:28.261Z,80.90
2019-05-20T01:28:56.853Z,81.10
2019-05-20T01:31:26.022Z,81.30
2019-05-20T01:33:54.615Z,81.20
2019-05-20T01:36:23.233Z,81.10
2019-05-20T01:38:51.762Z,81.40
2019-05-20T01:41:20.307Z,81.50
2019-05-20T01:43:48.778Z,81.90
2019-05-20T01:46:17.289Z,82.20
2019-05-20T01:48:45.901Z,82.60
2019-05-20T01:51:14.501Z,82.50
2019-05-20T01:53:43.054Z,82.40
2019-05-20T01:56:11.627Z,82.40
2019-05-20T01:58:40.262Z,82.50
2019-05-20T02:01:08.789Z,82.40
2019-05-20T02:03:37.529Z,82.50
2019-05-20T02:06:06.509Z,82.60
2019-05-20T02:08:35.072Z,82.70
2019-05-20T02:11:03.718Z,83.10
2019-05-20T02:13:50.167Z,82.80
2019-05-20T02:16:19.832Z,82.80
2019-05-20T02:18:48.395Z,83.10
2019-05-20T02:21:18.458Z,84.00
2019-05-20T02:23:47.029Z,83.40
2019-05-20T02:26:15.612Z,83.50
2019-05-20T02:28:46.166Z,83.80
2019-05-20T02:31:14.755Z,83.80
2019-05-20T02:33:51.701Z,83.80
2019-05-20T02:36:13.647Z,83.90
2019-05-20T02:38:42.478Z,84.10
2019-05-20T02:41:11.095Z,84.60
2019-05-20T02:43:41.047Z,85.20
2019-05-20T02:46:09.723Z,85.70
2019-05-20T02:48:38.271Z,86.10
2019-05-20T02:51:06.965Z,86.60
2019-05-20T02:53:35.443Z,86.70
2019-05-20T02:56:04.104Z,87.10
2019-05-20T02:58:32.683Z,87.10
2019-05-20T03:01:03.917Z,86.90
2019-05-20T03:03:32.477Z,86.90
2019-05-20T03:06:01.013Z,86.90
2019-05-20T03:08:31.186Z,86.70
2019-05-20T03:10:59.691Z,86.60
2019-05-20T03:13:28.194Z,86.70
2019-05-20T03:15:56.683Z,86.90
2019-05-20T03:18:25.233Z,86.40
2019-05-20T03:20:53.765Z,86.30
2019-05-20T03:23:22.349Z,86.60
2019-05-20T03:25:50.929Z,87.40
2019-05-20T03:28:20.778Z,87.70
2019-05-20T03:30:49.858Z,87.80
2019-05-20T03:33:18.434Z,87.90
2019-05-20T03:35:49.453Z,87.70
2019-05-20T03:38:18.103Z,87.50
2019-05-20T03:40:46.666Z,87.50
2019-05-20T03:43:15.822Z,87.40
2019-05-20T03:45:44.417Z,87.30
2019-05-20T03:48:15.219Z,87.20
2019-05-20T03:50:43.713Z,87.90
2019-05-20T03:53:12.249Z,88.20
2019-05-20T03:55:41.093Z,88.60
2019-05-20T03:58:13.398Z,88.80
2019-05-20T04:00:44.423Z,89.10
2019-05-20T04:03:14.089Z,89.30
2019-05-20T04:05:42.674Z,89.40
2019-05-20T04:08:11.349Z,89.50
2019-05-20T04:10:40.202Z,89.50
2019-05-20T04:13:08.771Z,89.60
2019-05-20T04:15:37.373Z,89.60
2019-05-20T04:18:05.944Z,89.80
2019-05-20T04:20:34.547Z,89.80
2019-05-20T04:23:03.143Z,89.80
2019-05-20T04:25:31.872Z,89.40
2019-05-20T04:28:00.477Z,89.40
2019-05-20T04:30:29.047Z,89.60
2019-05-20T04:32:57.654Z,89.60
2019-05-20T04:35:26.217Z,89.80
2019-05-20T04:37:54.811Z,90.00
2019-05-20T04:40:23.408Z,90.10
2019-05-20T04:42:52.006Z,90.20
2019-05-20T04:45:20.624Z,90.30
2019-05-20T04:47:49.165Z,90.40
2019-05-20T04:50:18.683Z,90.50
2019-05-20T04:52:47.282Z,90.50
2019-05-20T04:55:15.851Z,90.60
2019-05-20T04:57:45.976Z,90.60
2019-05-20T05:00:16.709Z,90.80
2019-05-20T05:02:45.526Z,91.00
2019-05-20T05:05:14.349Z,90.80
2019-05-20T05:07:45.425Z,90.60
2019-05-20T05:10:14.970Z,90.30
2019-05-20T05:12:43.550Z,90.20
2019-05-20T05:15:15.009Z,90.30
2019-05-20T05:17:43.503Z,90.20
2019-05-20T05:20:17.866Z,90.20
2019-05-20T05:22:43.510Z,90.30
2019-05-20T05:25:13.085Z,90.10
2019-05-20T05:27:41.629Z,89.80
2019-05-20T05:30:12.559Z,89.90
2019-05-20T05:32:41.441Z,89.80
2019-05-20T05:35:11.799Z,89.80
2019-05-20T05:37:40.264Z,89.60
2019-05-20T05:40:10.044Z,89.30
2019-05-20T05:42:39.655Z,88.80
2019-05-20T05:45:08.651Z,88.30
2019-05-20T05:47:37.720Z,88.10
2019-05-20T05:50:08.464Z,88.10
2019-05-20T05:52:39.063Z,88.00
2019-05-20T05:55:07.938Z,88.10
2019-05-20T05:57:41.122Z,87.80
2019-05-20T06:00:11.972Z,87.40
2019-05-20T06:02:41.025Z,86.90
2019-05-20T06:05:09.514Z,86.50
2019-05-20T06:07:37.983Z,86.20
2019-05-20T06:10:08.152Z,85.90
2019-05-20T06:12:36.698Z,85.30
2019-05-20T06:15:09.274Z,84.50
2019-05-20T06:17:37.974Z,83.60
2019-05-20T06:20:07.107Z,82.90
2019-05-20T06:22:37.279Z,82.40
2019-05-20T06:25:06.108Z,81.20
2019-05-20T06:27:34.699Z,80.20
2019-05-20T06:30:04.817Z,79.60
2019-05-20T06:32:35.053Z,78.70
2019-05-20T06:35:05.258Z,77.80
2019-05-20T06:37:35.467Z,77.10
2019-05-20T06:40:08.057Z,76.60
2019-05-20T06:42:36.644Z,76.30
2019-05-20T06:45:09.150Z,75.90
2019-05-20T06:47:38.553Z,75.30
2019-05-20T06:50:10.448Z,75.10
2019-05-20T06:52:38.984Z,74.50
2019-05-20T06:55:09.655Z,73.90
2019-05-20T06:57:38.177Z,73.30
2019-05-20T07:00:11.577Z,73.60
2019-05-20T07:02:42.188Z,74.10
2019-05-20T07:05:14.264Z,74.20
2019-05-20T07:07:42.830Z,74.50
2019-05-20T07:10:12.554Z,75.70
2019-05-20T07:12:41.958Z,74.50
2019-05-20T07:15:11.289Z,74.10
2019-05-20T07:17:39.879Z,73.90
2019-05-20T07:20:09.145Z,73.10
2019-05-20T07:22:54.665Z,72.30
2019-05-20T07:25:10.185Z,72.10
2019-05-20T07:27:38.718Z,72.30
2019-05-20T07:30:07.698Z,71.40
2019-05-20T07:32:36.246Z,71.10
2019-05-20T07:35:09.626Z,70.50
2019-05-20T07:37:39.506Z,70.20
2019-05-20T07:40:08.457Z,70.70
2019-05-20T07:42:37.244Z,71.10
2019-05-20T07:45:10.297Z,72.50
2019-05-20T07:47:40.389Z,72.70
2019-05-20T07:50:14.882Z,72.90
2019-05-20T07:52:43.561Z,73.30
2019-05-20T07:55:12.243Z,73.70
2019-05-20T07:57:43.758Z,73.40
2019-05-20T08:00:13.204Z,73.30
2019-05-20T08:02:43.193Z,73.40
2019-05-20T08:05:13.192Z,73.50
2019-05-20T08:07:51.980Z,73.90
2019-05-20T08:10:12.133Z,73.50
2019-05-20T08:12:41.203Z,73.80
2019-05-20T08:15:10.135Z,74.10
2019-05-20T08:17:38.693Z,74.20
2019-05-20T08:20:09.063Z,73.80
2019-05-20T08:22:37.658Z,73.10
2019-05-20T08:25:08.357Z,72.50
2019-05-20T08:27:36.851Z,72.20
2019-05-20T08:30:08.292Z,72.70
2019-05-20T08:32:38.398Z,73.00
2019-05-20T08:35:07.617Z,72.10
2019-05-20T08:37:45.485Z,71.20
2019-05-20T08:40:06.642Z,71.30
2019-05-20T08:42:35.211Z,71.40
2019-05-20T08:45:05.867Z,71.20
2019-05-20T08:47:34.489Z,71.40
2019-05-20T08:50:06.476Z,70.50
2019-05-20T08:52:34.719Z,69.80
2019-05-20T08:55:03.373Z,69.00
2019-05-20T08:57:32.024Z,68.30
2019-05-20T09:00:02.095Z,67.10
2019-05-20T09:02:32.207Z,65.80
2019-05-20T09:05:00.770Z,65.40
2019-05-20T09:07:34.911Z,65.30
2019-05-20T09:10:04.182Z,66.20
2019-05-20T09:12:35.977Z,66.70
2019-05-20T09:15:08.328Z,66.20
2019-05-20T09:17:39.211Z,66.30
2019-05-20T09:20:09.099Z,65.50
2019-05-20T09:22:39.266Z,65.40
2019-05-20T09:25:11.086Z,64.60
2019-05-20T09:27:41.055Z,64.20
2019-05-20T09:30:12.182Z,64.10
2019-05-20T09:32:43.053Z,63.40
2019-05-20T09:35:11.615Z,62.40
2019-05-20T09:37:40.211Z,62.10
2019-05-20T09:40:09.325Z,61.80
2019-05-20T09:42:40.820Z,62.80
2019-05-20T09:45:09.458Z,63.40
2019-05-20T09:47:43.044Z,62.80
2019-05-20T09:50:12.386Z,62.40
2019-05-20T09:52:42.235Z,61.60
2019-05-20T09:55:12.308Z,62.00
2019-05-20T09:57:40.898Z,61.40
2019-05-20T10:00:10.404Z,59.60
2019-05-20T10:02:39.086Z,59.60
2019-05-20T10:05:08.598Z,59.80
2019-05-20T10:07:38.148Z,60.20
2019-05-20T10:10:08.459Z,60.00
2019-05-20T10:12:46.012Z,59.60
2019-05-20T10:15:09.973Z,60.00
2019-05-20T10:17:38.581Z,61.70
2019-05-20T10:20:08.123Z,61.50
2019-05-20T10:22:38.620Z,60.60
2019-05-20T10:25:08.110Z,60.40
2019-05-20T10:27:37.959Z,60.60
2019-05-20T10:30:08.296Z,61.30
2019-05-20T10:32:40.791Z,61.70
2019-05-20T10:35:10.203Z,61.50
2019-05-20T10:37:38.842Z,61.10
2019-05-20T10:40:08.284Z,60.90
2019-05-20T10:42:36.864Z,60.80
2019-05-20T10:45:08.269Z,60.80
2019-05-20T10:47:38.220Z,60.70
2019-05-20T10:50:09.233Z,60.00
2019-05-20T10:52:38.355Z,59.30
2019-05-20T10:55:09.893Z,58.80
2019-05-20T10:57:38.542Z,58.50
2019-05-20T11:00:09.718Z,58.70
2019-05-20T11:02:38.373Z,57.90
2019-05-20T11:05:07.260Z,57.30
2019-05-20T11:07:35.924Z,53.80
2019-05-20T11:10:06.645Z,55.20
2019-05-20T11:12:37.538Z,54.30
2019-05-20T11:15:09.154Z,54.30
2019-05-20T11:17:40.092Z,51.10
2019-05-20T11:20:09.107Z,50.30
2019-05-20T11:22:41.769Z,49.40
2019-05-20T11:25:11.018Z,49.80
2019-05-20T11:27:42.053Z,50.10
2019-05-20T11:30:12.575Z,50.50
2019-05-20T11:32:41.246Z,52.10
2019-05-20T11:35:13.305Z,52.60
2019-05-20T11:37:43.115Z,52.80
2019-05-20T11:40:13.510Z,51.40
2019-05-20T11:42:44.116Z,50.40
2019-05-20T11:45:17.324Z,49.30
2019-05-20T11:47:45.933Z,48.90
2019-05-20T11:50:15.662Z,48.20
2019-05-20T11:52:44.274Z,48.30
2019-05-20T11:55:13.349Z,48.00
2019-05-20T11:57:41.958Z,47.60
2019-05-20T12:00:11.608Z,47.60
2019-05-20T12:02:41.148Z,47.50
2019-05-20T12:05:12.416Z,47.20
2019-05-20T12:07:42.034Z,47.10
2019-05-20T12:10:10.902Z,46.30
2019-05-20T12:12:45.422Z,45.30
2019-05-20T12:15:13.985Z,44.90
2019-05-20T12:17:42.539Z,44.50
2019-05-20T12:20:12.814Z,44.60
2019-05-20T12:22:41.836Z,44.80
2019-05-20T12:25:10.442Z,45.20
2019-05-20T12:27:39.379Z,44.70
2019-05-20T12:30:10.524Z,44.00
2019-05-20T12:32:40.619Z,43.20
2019-05-20T12:35:09.995Z,43.40
2019-05-20T12:37:45.538Z,42.50
2019-05-20T12:40:13.146Z,41.40
2019-05-20T12:42:41.725Z,40.10
2019-05-20T12:45:10.706Z,40.30
2019-05-20T12:47:40.891Z,39.70
2019-05-20T12:50:10.840Z,39.80
2019-05-20T12:52:39.390Z,40.10
2019-05-20T12:55:09.788Z,40.00
2019-05-20T12:57:39.556Z,40.30
2019-05-20T13:00:12.893Z,40.70
2019-05-20T13:02:42.660Z,40.90
2019-05-20T13:05:12.129Z,41.50
2019-05-20T13:07:43.880Z,41.50
2019-05-20T13:10:29.130Z,41.90
2019-05-20T13:12:48.248Z,42.90
2019-05-20T13:15:18.595Z,44.80
2019-05-20T13:17:47.485Z,47.30
2019-05-20T13:20:17.707Z,50.20
2019-05-20T13:22:48.142Z,50.90
2019-05-20T13:25:18.608Z,49.90
2019-05-20T13:27:47.235Z,50.50
2019-05-20T13:30:16.397Z,51.00
2019-05-20T13:32:46.675Z,53.00
2019-05-20T13:35:15.428Z,53.90
2019-05-20T13:37:45.722Z,56.30
2019-05-20T13:40:16.288Z,55.60
2019-05-20T13:42:45.855Z,54.80
2019-05-20T13:45:14.487Z,55.30
2019-05-20T13:47:44.029Z,55.90
2019-05-20T13:50:14.119Z,55.30
2019-05-20T13:52:42.737Z,50.80
2019-05-20T13:55:13.038Z,52.50
2019-05-20T13:57:42.063Z,52.80
2019-05-20T14:00:13.541Z,52.40
2019-05-20T14:02:43.670Z,52.50
2019-05-20T14:05:17.193Z,52.60
2019-05-20T14:07:45.798Z,52.90
2019-05-20T14:10:14.999Z,52.70
2019-05-20T14:12:45.835Z,52.30
2019-05-20T14:15:17.920Z,53.50
2019-05-20T14:17:48.945Z,54.40
2019-05-20T14:20:18.111Z,53.80
2019-05-20T14:22:47.025Z,55.30
2019-05-20T14:25:17.043Z,52.00
2019-05-20T14:27:45.936Z,52.90
2019-05-20T14:30:19.051Z,52.80
2019-05-20T14:32:49.161Z,53.60
2019-05-20T14:35:17.678Z,53.60
2019-05-20T14:37:46.966Z,52.90
2019-05-20T14:40:17.363Z,53.00
2019-05-20T14:42:46.249Z,52.50
2019-05-20T14:45:14.905Z,54.80
2019-05-20T14:47:44.301Z,54.20
2019-05-20T14:50:14.596Z,53.20
2019-05-20T14:52:45.000Z,55.10
2019-05-20T14:55:13.871Z,55.70
2019-05-20T14:57:43.767Z,57.00
2019-05-20T15:00:13.988Z,57.60
2019-05-20T15:02:43.295Z,58.30
2019-05-20T15:05:11.977Z,60.10
2019-05-20T15:07:40.494Z,61.40
2019-05-20T15:10:11.167Z,61.00
2019-05-20T15:12:43.433Z,61.40
2019-05-20T15:15:12.357Z,61.90
2019-05-20T15:17:41.290Z,61.80
2019-05-20T15:20:10.320Z,61.80
2019-05-20T15:22:38.838Z,61.90
2019-05-20T15:25:09.220Z,60.80
2019-05-20T15:27:39.973Z,61.10
2019-05-20T15:30:10.535Z,61.80
2019-05-20T15:32:40.598Z,61.90
2019-05-20T15:35:09.435Z,61.00
2019-05-20T15:37:41.071Z,59.90
2019-05-20T15:40:09.864Z,60.40
2019-05-20T15:42:38.445Z,61.60
2019-05-20T15:45:08.854Z,61.00
2019-05-20T15:47:38.169Z,62.30
2019-05-20T15:50:09.997Z,62.00
2019-05-20T15:52:38.289Z,63.70
2019-05-20T15:55:06.835Z,63.70
2019-05-20T15:57:35.999Z,61.70
2019-05-20T16:00:10.351Z,63.30
2019-05-20T16:02:40.530Z,65.20
2019-05-20T16:05:09.505Z,67.70
2019-05-20T16:07:39.012Z,70.10
2019-05-20T16:10:08.497Z,71.80
2019-05-20T16:12:37.837Z,72.20
2019-05-20T16:15:08.187Z,71.30
2019-05-20T16:17:36.783Z,73.70
2019-05-20T16:20:08.816Z,71.90
2019-05-20T16:22:38.416Z,73.20
2019-05-20T16:25:09.336Z,73.30
2019-05-20T16:27:37.854Z,71.70
2019-05-20T16:30:09.041Z,72.00
2019-05-20T16:32:37.678Z,73.70
2019-05-20T16:35:07.368Z,76.20
2019-05-20T16:37:37.482Z,73.60
2019-05-20T16:40:07.810Z,75.80
2019-05-20T16:42:36.601Z,77.60
2019-05-20T16:45:11.726Z,81.00
2019-05-20T16:47:39.484Z,82.30
2019-05-20T16:50:10.209Z,83.40
2019-05-20T16:52:39.031Z,84.30
2019-05-20T16:55:07.829Z,84.90
2019-05-20T16:57:37.204Z,84.80
2019-05-20T17:00:27.437Z,84.60
2019-05-20T17:02:37.724Z,83.60
2019-05-20T17:05:09.341Z,80.80
2019-05-20T17:07:40.493Z,82.20
2019-05-20T17:10:09.431Z,81.40
2019-05-20T17:12:40.039Z,82.50
2019-05-20T17:15:09.219Z,82.80
2019-05-20T17:17:37.841Z,82.90
2019-05-20T17:20:07.156Z,83.50
2019-05-20T17:22:37.062Z,83.90
2019-05-20T17:25:07.241Z,84.50
2019-05-20T17:27:36.074Z,86.00
2019-05-20T17:30:12.333Z,87.70
2019-05-20T17:32:40.591Z,89.60
2019-05-20T17:35:09.518Z,90.30
2019-05-20T17:37:38.364Z,90.50
2019-05-20T17:40:07.920Z,90.50
2019-05-20T17:42:37.094Z,90.70
2019-05-20T17:45:11.952Z,90.80
2019-05-20T17:47:40.508Z,91.10
2019-05-20T17:50:10.971Z,90.90
2019-05-20T17:52:39.554Z,90.70
2019-05-20T17:55:09.670Z,90.40
2019-05-20T17:57:38.612Z,90.80
2019-05-20T18:00:10.895Z,90.90
2019-05-20T18:02:39.555Z,91.00
2019-05-20T18:05:08.512Z,91.00
2019-05-20T18:07:39.074Z,90.80
2019-05-20T18:10:08.961Z,91.10
2019-05-20T18:12:37.542Z,91.30
2019-05-20T18:15:09.476Z,91.30
2019-05-20T18:17:39.524Z,91.00
2019-05-20T18:20:11.240Z,91.10
2019-05-20T18:22:40.097Z,91.40
2019-05-20T18:25:10.416Z,91.40
2019-05-20T18:27:43.486Z,91.60
2019-05-20T18:30:13.030Z,91.80
2019-05-20T18:32:42.844Z,91.70
2019-05-20T18:35:11.801Z,91.70
2019-05-20T18:37:44.676Z,91.50
2019-05-20T18:40:14.986Z,91.60
2019-05-20T18:42:43.741Z,91.90
2019-05-20T18:45:14.636Z,91.50
2019-05-20T18:47:43.171Z,91.30
2019-05-20T18:50:14.063Z,92.10
2019-05-20T18:52:44.429Z,92.60
2019-05-20T18:55:13.081Z,93.30
2019-05-20T18:57:43.237Z,92.90
2019-05-20T19:00:12.415Z,93.00
2019-05-20T19:02:42.192Z,92.50
2019-05-20T19:05:13.567Z,92.40
2019-05-20T19:07:42.209Z,92.80
2019-05-20T19:10:11.072Z,92.80
2019-05-20T19:12:42.985Z,92.80
2019-05-20T19:15:12.412Z,93.10
2019-05-20T19:17:41.034Z,93.50
2019-05-20T19:20:09.852Z,93.20
2019-05-20T19:22:39.965Z,92.70
2019-05-20T19:25:09.757Z,92.70
2019-05-20T19:27:38.338Z,93.00
2019-05-20T19:30:08.267Z,93.00
2019-05-20T19:32:36.817Z,93.10
2019-05-20T19:35:07.108Z,93.30
2019-05-20T19:37:38.273Z,93.20
2019-05-20T19:40:09.057Z,93.50
2019-05-20T19:42:37.809Z,93.30
2019-05-20T19:45:06.896Z,93.20
2019-05-20T19:47:35.461Z,93.40
2019-05-20T19:50:06.381Z,93.40
2019-05-20T19:52:36.251Z,93.70
2019-05-20T19:55:06.189Z,93.90
2019-05-20T19:57:35.954Z,93.60
2019-05-20T20:00:09.210Z,93.40
2019-05-20T20:02:37.804Z,93.30
2019-05-20T20:05:08.085Z,93.10
2019-05-20T20:07:36.919Z,93.00
2019-05-20T20:10:07.133Z,92.80
2019-05-20T20:12:37.321Z,93.00
2019-05-20T20:15:09.575Z,93.40
2019-05-20T20:17:39.928Z,93.70
2019-05-20T20:20:10.474Z,94.20
2019-05-20T20:22:39.077Z,94.60
2019-05-20T20:25:07.877Z,94.90
2019-05-20T20:27:37.287Z,95.00
2019-05-20T20:30:06.640Z,95.10
2019-05-20T20:32:38.277Z,95.20
2019-05-20T20:35:08.040Z,95.00
2019-05-20T20:37:36.605Z,95.00
2019-05-20T20:40:05.606Z,94.90
2019-05-20T20:42:34.121Z,94.90
2019-05-20T20:45:02.635Z,95.00
2019-05-20T20:47:41.293Z,95.00
2019-05-20T20:50:04.741Z,95.00
2019-05-20T20:52:33.299Z,94.80
2019-05-20T20:55:03.206Z,94.90
2019-05-20T20:57:31.777Z,94.90
2019-05-20T21:00:00.271Z,94.90
2019-05-20T21:02:28.822Z,94.70
2019-05-20T21:04:57.650Z,94.50
2019-05-20T21:07:26.193Z,94.20
2019-05-20T21:09:54.789Z,94.20
2019-05-20T21:12:26.044Z,94.30
2019-05-20T21:14:54.654Z,94.30
2019-05-20T21:17:23.460Z,94.30
2019-05-20T21:19:53.101Z,94.10
2019-05-20T21:22:21.712Z,94.00
2019-05-20T21:24:50.277Z,94.00
2019-05-20T21:27:21.073Z,94.00
2019-05-20T21:29:49.656Z,94.20
2019-05-20T21:32:18.204Z,94.30
2019-05-20T21:34:46.787Z,94.60
2019-05-20T21:37:15.279Z,94.70
2019-05-20T21:39:43.878Z,94.80
2019-05-20T21:42:12.447Z,94.80
2019-05-20T21:44:41.025Z,94.90
2019-05-20T21:47:09.637Z,95.00
2019-05-20T21:49:38.193Z,94.80
2019-05-20T21:52:06.741Z,95.00
2019-05-20T21:54:35.325Z,94.80
2019-05-20T21:57:03.914Z,94.90
2019-05-20T21:59:33.721Z,94.90
2019-05-20T22:02:02.583Z,95.40
2019-05-20T22:04:31.161Z,95.40
2019-05-20T22:07:01.338Z,95.70
2019-05-20T22:09:29.926Z,95.50
2019-05-20T22:11:58.486Z,95.50
2019-05-20T22:14:27.067Z,95.70
2019-05-20T22:16:55.661Z,95.60
2019-05-20T22:19:24.241Z,95.50
2019-05-20T22:22:03.388Z,95.40
2019-05-20T22:24:31.982Z,95.40
2019-05-20T22:27:00.535Z,95.30
2019-05-20T22:29:29.034Z,95.40
2019-05-20T22:31:57.605Z,95.40
2019-05-20T22:34:26.119Z,95.30
2019-05-20T22:36:54.682Z,95.40
2019-05-20T22:39:23.250Z,95.40
2019-05-20T22:41:51.861Z,95.30
2019-05-20T22:44:20.421Z,95.30
2019-05-20T22:46:48.996Z,95.30
2019-05-20T22:49:17.611Z,95.30
2019-05-20T22:51:46.184Z,95.30
2019-05-20T22:54:14.849Z,95.30
2019-05-20T22:56:43.411Z,95.20
2019-05-20T22:59:11.992Z,95.20
2019-05-20T23:01:40.547Z,95.10
2019-05-20T23:04:09.134Z,95.10
2019-05-20T23:06:37.711Z,95.20
2019-05-20T23:09:06.626Z,95.20
2019-05-20T23:11:36.959Z,95.40
2019-05-20T23:14:05.507Z,95.40
2019-05-20T23:16:35.315Z,95.50
2019-05-20T23:19:04.878Z,95.70
2019-05-20T23:21:33.441Z,95.60
2019-05-20T23:24:02.003Z,95.60
2019-05-20T23:26:30.587Z,95.60
2019-05-20T23:28:59.187Z,95.70
2019-05-20T23:31:27.740Z,95.60
2019-05-20T23:34:10.335Z,95.60
2019-05-20T23:36:28.844Z,95.60
2019-05-20T23:38:57.323Z,95.60
2019-05-20T23:41:25.917Z,95.60
2019-05-20T23:43:54.478Z,95.50
2019-05-20T23:46:23.100Z,95.60
2019-05-20T23:48:51.698Z,95.60
2019-05-20T23:51:20.257Z,95.70
2019-05-20T23:53:48.861Z,95.80
2019-05-20T23:56:17.461Z,95.60
2019-05-20T23:58:46.033Z,95.70
